createdAt,value
2022-09-06T00:01:23.414Z,18.80
2022-09-06T00:03:50.873Z,18.80
2022-09-06T00:06:19.219Z,18.70
2022-09-06T00:08:47.446Z,18.70
2022-09-06T00:11:15.082Z,18.70
2022-09-06T00:13:42.084Z,18.70
2022-09-06T00:16:12.051Z,18.60
2022-09-06T00:18:39.146Z,18.60
2022-09-06T00:21:17.936Z,18.60
2022-09-06T00:23:44.651Z,18.60
2022-09-06T00:26:11.989Z,18.50
2022-09-06T00:28:40.141Z,18.50
2022-09-06T00:31:12.604Z,18.50
2022-09-06T00:33:40.149Z,18.50
2022-09-06T00:36:11.172Z,18.50
2022-09-06T00:38:38.383Z,18.40
2022-09-06T00:41:06.660Z,18.40
2022-09-06T00:43:33.414Z,18.40
2022-09-06T00:46:01.220Z,18.30
2022-09-06T00:48:28.418Z,18.30
2022-09-06T00:51:00.450Z,18.30
2022-09-06T00:53:28.126Z,18.20
2022-09-06T00:55:55.641Z,18.20
2022-09-06T00:58:22.717Z,18.20
2022-09-06T01:00:49.742Z,18.10
2022-09-06T01:03:16.680Z,18.10
2022-09-06T01:06:11.442Z,18.10
2022-09-06T01:08:47.159Z,18.00
2022-09-06T01:11:32.711Z,18.00
2022-09-06T01:14:22.055Z,18.00
2022-09-06T01:16:51.826Z,18.00
2022-09-06T01:19:36.921Z,17.90
2022-09-06T01:22:31.299Z,17.90
2022-09-06T01:25:20.628Z,17.90
2022-09-06T01:28:02.368Z,17.90
2022-09-06T01:30:33.514Z,17.80
2022-09-06T01:33:20.144Z,17.80
2022-09-06T01:35:55.946Z,17.80
2022-09-06T01:38:22.807Z,17.70
2022-09-06T01:40:49.578Z,17.70
2022-09-06T01:43:29.997Z,17.70
2022-09-06T01:46:01.952Z,17.70
2022-09-06T01:48:49.696Z,17.70
2022-09-06T01:51:54.586Z,17.70
2022-09-06T01:54:40.194Z,17.70
2022-09-06T01:57:29.106Z,17.70
2022-09-06T02:00:11.819Z,17.70
2022-09-06T02:03:06.356Z,17.70
2022-09-06T02:05:55.877Z,17.70
2022-09-06T02:08:29.465Z,17.70
2022-09-06T02:11:00.851Z,17.60
2022-09-06T02:13:33.327Z,17.60
2022-09-06T02:16:04.082Z,17.60
2022-09-06T02:18:56.761Z,17.70
2022-09-06T02:21:29.403Z,17.70
2022-09-06T02:23:59.701Z,17.60
2022-09-06T02:26:29.862Z,17.60
2022-09-06T02:28:57.683Z,17.60
2022-09-06T02:31:31.932Z,17.60
2022-09-06T02:33:58.959Z,17.60
2022-09-06T02:36:26.111Z,17.60
2022-09-06T02:38:54.687Z,17.60
2022-09-06T02:41:24.098Z,17.60
2022-09-06T02:43:50.855Z,17.60
2022-09-06T02:46:17.670Z,17.60
2022-09-06T02:48:44.422Z,17.60
2022-09-06T02:51:11.243Z,17.60
2022-09-06T02:53:38.255Z,17.60
2022-09-06T02:56:05.144Z,17.60
2022-09-06T02:58:31.848Z,17.60
2022-09-06T03:00:58.819Z,17.60
2022-09-06T03:03:27.309Z,17.60
2022-09-06T03:05:54.783Z,17.60
2022-09-06T03:08:23.439Z,17.60
2022-09-06T03:10:56.455Z,17.60
2022-09-06T03:13:24.415Z,17.50
2022-09-06T03:15:52.843Z,17.50
2022-09-06T03:18:19.608Z,17.50
2022-09-06T03:20:48.402Z,17.50
2022-09-06T03:23:15.128Z,17.50
2022-09-06T03:25:43.078Z,17.50
2022-09-06T03:28:10.111Z,17.50
2022-09-06T03:30:37.023Z,17.50
2022-09-06T03:33:03.748Z,17.50
2022-09-06T03:35:30.477Z,17.50
2022-09-06T03:37:57.189Z,17.50
2022-09-06T03:40:23.879Z,17.50
2022-09-06T03:42:50.664Z,17.50
2022-09-06T03:45:17.352Z,17.40
2022-09-06T03:47:44.876Z,17.40
2022-09-06T03:50:11.779Z,17.40
2022-09-06T03:52:38.724Z,17.40
2022-09-06T03:55:06.629Z,17.40
2022-09-06T03:57:33.426Z,17.30
2022-09-06T04:00:00.080Z,17.30
2022-09-06T04:02:26.800Z,17.30
2022-09-06T04:04:55.490Z,17.30
2022-09-06T04:07:22.938Z,17.30
2022-09-06T04:09:49.640Z,17.30
2022-09-06T04:12:16.380Z,17.30
2022-09-06T04:14:43.054Z,17.30
2022-09-06T04:17:09.990Z,17.30
2022-09-06T04:19:36.668Z,17.20
2022-09-06T04:22:03.522Z,17.20
2022-09-06T04:24:30.226Z,17.20
2022-09-06T04:26:56.903Z,17.20
2022-09-06T04:29:24.583Z,17.20
2022-09-06T04:31:51.308Z,17.20
2022-09-06T04:34:19.667Z,17.20
2022-09-06T04:36:48.502Z,17.20
2022-09-06T04:39:15.466Z,17.20
2022-09-06T04:41:42.708Z,17.20
2022-09-06T04:44:09.401Z,17.20
2022-09-06T04:46:36.201Z,17.10
2022-09-06T04:49:03.894Z,17.10
2022-09-06T04:51:31.569Z,17.10
2022-09-06T04:53:58.447Z,17.10
2022-09-06T04:56:26.528Z,17.00
2022-09-06T04:58:55.074Z,16.90
2022-09-06T05:01:22.077Z,16.90
2022-09-06T05:03:48.914Z,16.80
2022-09-06T05:06:21.425Z,16.80
2022-09-06T05:08:49.007Z,16.80
2022-09-06T05:11:15.887Z,16.70
2022-09-06T05:13:42.942Z,16.70
2022-09-06T05:16:10.461Z,16.70
2022-09-06T05:18:37.515Z,16.60
2022-09-06T05:21:04.300Z,16.60
2022-09-06T05:23:31.084Z,16.60
2022-09-06T05:25:57.723Z,16.60
2022-09-06T05:28:24.617Z,16.50
2022-09-06T05:30:51.339Z,16.60
2022-09-06T05:33:22.604Z,16.50
2022-09-06T05:35:49.682Z,16.60
2022-09-06T05:38:16.636Z,16.50
2022-09-06T05:40:43.603Z,16.50
2022-09-06T05:43:10.386Z,16.50
2022-09-06T05:45:37.142Z,16.50
2022-09-06T05:48:03.964Z,16.50
2022-09-06T05:50:30.640Z,16.50
2022-09-06T05:52:57.310Z,16.50
2022-09-06T05:55:24.037Z,16.40
2022-09-06T05:57:50.709Z,16.40
2022-09-06T06:00:17.619Z,16.40
2022-09-06T06:02:47.912Z,16.40
2022-09-06T06:05:14.924Z,16.40
2022-09-06T06:07:41.930Z,16.30
2022-09-06T06:10:09.027Z,16.30
2022-09-06T06:12:35.757Z,16.30
2022-09-06T06:15:02.464Z,16.30
2022-09-06T06:17:29.199Z,16.30
2022-09-06T06:19:55.913Z,16.30
2022-09-06T06:22:22.660Z,16.30
2022-09-06T06:24:51.658Z,16.30
2022-09-06T06:27:18.342Z,16.30
2022-09-06T06:29:45.037Z,16.30
2022-09-06T06:32:11.772Z,16.30
2022-09-06T06:34:38.519Z,16.30
2022-09-06T06:37:05.249Z,16.30
2022-09-06T06:39:31.943Z,16.30
2022-09-06T06:41:58.682Z,16.30
2022-09-06T06:44:26.615Z,16.30
2022-09-06T06:46:53.390Z,16.30
2022-09-06T06:49:20.093Z,16.30
2022-09-06T06:51:46.977Z,16.40
2022-09-06T06:54:13.610Z,16.40
2022-09-06T06:56:41.061Z,16.40
2022-09-06T06:59:08.271Z,16.50
2022-09-06T07:01:36.131Z,16.50
2022-09-06T07:04:03.928Z,16.50
2022-09-06T07:09:19.342Z,16.60
2022-09-06T07:11:48.195Z,16.70
2022-09-06T07:14:16.174Z,16.80
2022-09-06T07:16:43.046Z,16.90
2022-09-06T07:22:00.315Z,17.00
2022-09-06T07:24:29.328Z,17.10
2022-09-06T07:29:42.676Z,17.30
2022-09-06T07:34:41.624Z,17.50
2022-09-06T07:37:09.153Z,17.60
2022-09-06T07:39:37.042Z,17.70
2022-09-06T07:42:04.045Z,17.90
2022-09-06T07:44:30.758Z,18.00
2022-09-06T07:55:17.607Z,18.50
2022-09-06T07:57:44.363Z,18.60
2022-09-06T08:00:12.210Z,18.80
2022-09-06T08:02:40.739Z,18.90
2022-09-06T08:10:41.394Z,19.40
2022-09-06T08:13:08.044Z,19.50
2022-09-06T08:15:35.327Z,19.70
2022-09-06T08:18:02.000Z,19.90
2022-09-06T08:20:28.852Z,20.00
2022-09-06T08:22:55.486Z,20.20
2022-09-06T08:25:22.803Z,20.30
2022-09-06T08:27:49.479Z,20.50
2022-09-06T08:30:16.256Z,20.70
2022-09-06T08:32:43.052Z,20.80
2022-09-06T08:35:10.253Z,21.00
2022-09-06T08:37:36.977Z,21.20
2022-09-06T08:40:04.440Z,21.40
2022-09-06T08:42:31.701Z,21.60
2022-09-06T08:45:00.442Z,21.70
2022-09-06T08:47:27.353Z,21.90
2022-09-06T08:50:03.773Z,22.10
2022-09-06T08:55:54.248Z,22.50
2022-09-06T08:58:26.729Z,22.80
2022-09-06T09:01:06.081Z,22.90
2022-09-06T09:03:39.084Z,23.10
2022-09-06T09:06:09.985Z,23.30
2022-09-06T09:09:12.836Z,23.50
2022-09-06T09:11:43.435Z,23.60
2022-09-06T09:14:18.559Z,23.80
2022-09-06T09:16:45.619Z,24.00
2022-09-06T09:19:13.315Z,24.20
2022-09-06T09:21:40.606Z,24.40
2022-09-06T09:24:13.808Z,24.60
2022-09-06T09:27:11.077Z,24.80
2022-09-06T09:32:45.971Z,25.20
2022-09-06T09:35:21.279Z,25.40
2022-09-06T09:37:51.086Z,25.60
2022-09-06T09:40:25.288Z,25.70
2022-09-06T09:42:54.611Z,25.90
2022-09-06T09:45:28.944Z,26.00
2022-09-06T09:47:55.941Z,26.20
2022-09-06T09:50:31.853Z,26.30
2022-09-06T09:53:12.310Z,26.50
2022-09-06T09:55:39.936Z,26.70
2022-09-06T09:58:08.501Z,26.90
2022-09-06T10:00:43.278Z,27.10
2022-09-06T10:03:19.861Z,27.30
2022-09-06T10:06:02.603Z,27.40
2022-09-06T10:08:33.272Z,27.60
2022-09-06T10:11:00.908Z,27.80
2022-09-06T10:13:29.643Z,28.00
2022-09-06T10:16:03.413Z,28.10
2022-09-06T10:18:33.147Z,28.30
2022-09-06T10:21:05.682Z,28.50
2022-09-06T10:26:56.136Z,28.80
2022-09-06T10:29:52.964Z,29.00
2022-09-06T10:32:58.801Z,29.10
2022-09-06T10:35:35.135Z,29.30
2022-09-06T10:38:07.967Z,29.40
2022-09-06T10:40:47.144Z,29.60
2022-09-06T10:43:19.018Z,29.80
2022-09-06T10:45:47.191Z,29.90
2022-09-06T10:48:33.463Z,29.90
2022-09-06T10:51:30.667Z,30.00
2022-09-06T10:54:12.511Z,30.20
2022-09-06T10:56:52.208Z,30.40
2022-09-06T11:02:41.672Z,30.70
2022-09-06T11:11:02.987Z,31.20
2022-09-06T11:13:29.909Z,31.20
2022-09-06T11:16:06.536Z,31.40
2022-09-06T11:18:46.574Z,31.60
2022-09-06T11:21:26.875Z,31.80
2022-09-06T11:23:59.765Z,31.90
2022-09-06T11:26:34.644Z,32.00
2022-09-06T11:29:29.309Z,32.20
2022-09-06T11:34:57.679Z,32.50
2022-09-06T11:37:31.120Z,32.70
2022-09-06T11:40:32.634Z,32.80
2022-09-06T11:43:00.043Z,32.90
2022-09-06T11:45:40.416Z,33.00
2022-09-06T11:48:33.885Z,33.20
2022-09-06T11:51:06.719Z,33.40
2022-09-06T11:53:48.663Z,33.50
2022-09-06T11:56:30.985Z,33.60
2022-09-06T11:59:12.981Z,33.80
2022-09-06T12:01:40.976Z,33.90
2022-09-06T12:04:10.189Z,34.10
2022-09-06T12:07:13.064Z,34.20
2022-09-06T12:09:43.924Z,34.40
2022-09-06T12:12:16.184Z,34.50
2022-09-06T12:14:46.743Z,34.60
2022-09-06T12:17:13.417Z,34.70
2022-09-06T12:20:11.259Z,34.80
2022-09-06T12:22:40.289Z,35.00
2022-09-06T12:25:07.859Z,35.10
2022-09-06T12:27:39.932Z,35.10
2022-09-06T12:30:08.898Z,35.00
2022-09-06T12:32:43.905Z,35.00
2022-09-06T12:38:07.004Z,34.60
2022-09-06T12:40:45.562Z,34.50
2022-09-06T12:43:14.552Z,34.60
2022-09-06T12:45:50.655Z,34.60
2022-09-06T12:48:35.357Z,34.60
2022-09-06T12:51:19.306Z,34.60
2022-09-06T12:54:00.239Z,34.60
2022-09-06T12:56:29.205Z,34.60
2022-09-06T12:59:17.562Z,34.50
2022-09-06T13:02:05.496Z,34.50
2022-09-06T13:05:04.276Z,34.50
2022-09-06T13:07:32.450Z,34.30
2022-09-06T13:09:59.266Z,34.20
2022-09-06T13:12:34.099Z,34.10
2022-09-06T13:15:07.552Z,34.10
2022-09-06T13:17:35.454Z,34.10
2022-09-06T13:20:29.999Z,34.10
2022-09-06T13:23:20.029Z,34.10
2022-09-06T13:25:49.008Z,33.90
2022-09-06T13:28:33.116Z,33.80
2022-09-06T13:31:08.597Z,33.70
2022-09-06T13:33:37.621Z,33.50
2022-09-06T13:36:24.350Z,33.30
2022-09-06T13:38:51.115Z,33.10
2022-09-06T13:41:26.545Z,33.00
2022-09-06T13:44:04.197Z,32.90
2022-09-06T13:46:33.219Z,32.80
2022-09-06T13:49:00.400Z,32.70
2022-09-06T13:51:27.686Z,32.60
2022-09-06T13:54:08.369Z,32.50
2022-09-06T13:56:35.395Z,32.40
2022-09-06T13:59:03.679Z,32.30
2022-09-06T14:01:31.983Z,32.30
2022-09-06T14:03:59.103Z,32.20
2022-09-06T14:06:25.906Z,32.10
2022-09-06T14:09:08.835Z,32.10
2022-09-06T14:11:36.473Z,32.00
2022-09-06T14:14:03.689Z,31.90
2022-09-06T14:16:30.511Z,31.70
2022-09-06T14:18:57.537Z,31.70
2022-09-06T14:21:24.368Z,31.70
2022-09-06T14:23:52.641Z,31.70
2022-09-06T14:26:21.465Z,31.70
2022-09-06T14:28:48.484Z,31.80
2022-09-06T14:31:17.946Z,31.90
2022-09-06T14:33:45.129Z,32.10
2022-09-06T14:36:23.280Z,32.30
2022-09-06T14:38:50.377Z,32.50
2022-09-06T14:41:18.843Z,32.70
2022-09-06T14:43:52.684Z,32.90
2022-09-06T14:46:21.949Z,33.10
2022-09-06T14:48:49.310Z,33.20
2022-09-06T14:51:23.237Z,33.40
2022-09-06T14:53:52.286Z,33.60
2022-09-06T14:56:19.646Z,33.80
2022-09-06T14:58:46.766Z,34.00
2022-09-06T15:01:20.363Z,34.10
2022-09-06T15:03:51.528Z,34.30
2022-09-06T15:06:21.094Z,34.30
2022-09-06T15:08:48.962Z,34.40
2022-09-06T15:11:34.464Z,34.50
2022-09-06T15:14:06.588Z,34.60
2022-09-06T15:16:34.251Z,34.60
2022-09-06T15:19:02.866Z,34.80
2022-09-06T15:21:30.345Z,34.70
2022-09-06T15:23:57.093Z,34.80
2022-09-06T15:26:23.947Z,34.80
2022-09-06T15:28:50.857Z,34.90
2022-09-06T15:31:19.246Z,35.00
2022-09-06T15:33:48.676Z,35.10
2022-09-06T15:36:16.234Z,35.10
2022-09-06T15:38:45.738Z,35.00
2022-09-06T15:41:15.451Z,35.10
2022-09-06T15:43:46.837Z,35.10
2022-09-06T15:46:15.252Z,34.90
2022-09-06T15:48:47.357Z,34.90
2022-09-06T15:51:16.720Z,34.90
2022-09-06T15:53:43.842Z,34.90
2022-09-06T15:56:13.733Z,34.90
2022-09-06T15:58:40.564Z,34.90
2022-09-06T16:01:15.910Z,34.90
2022-09-06T16:03:47.260Z,35.00
2022-09-06T16:08:56.217Z,35.10
2022-09-06T16:11:22.984Z,35.20
2022-09-06T16:13:49.850Z,35.20
2022-09-06T16:16:17.645Z,35.30
2022-09-06T16:18:49.017Z,35.40
2022-09-06T16:21:28.285Z,35.40
2022-09-06T16:23:57.839Z,35.20
2022-09-06T16:26:26.670Z,35.00
2022-09-06T16:28:53.828Z,35.00
2022-09-06T16:31:24.726Z,34.90
2022-09-06T16:33:53.625Z,35.00
2022-09-06T16:36:21.494Z,35.00
2022-09-06T16:38:48.775Z,35.00
2022-09-06T16:41:21.951Z,35.00
2022-09-06T16:43:49.372Z,35.00
2022-09-06T16:46:16.735Z,35.00
2022-09-06T16:48:44.174Z,34.90
2022-09-06T16:51:13.319Z,34.80
2022-09-06T16:53:42.212Z,34.70
2022-09-06T16:56:10.562Z,34.60
2022-09-06T16:58:39.081Z,34.70
2022-09-06T17:01:07.751Z,34.60
2022-09-06T17:03:36.070Z,34.60
2022-09-06T17:06:02.927Z,34.60
2022-09-06T17:08:32.356Z,34.60
2022-09-06T17:11:10.915Z,34.60
2022-09-06T17:13:38.393Z,34.50
2022-09-06T17:16:24.082Z,34.40
2022-09-06T17:18:53.565Z,34.30
2022-09-06T17:21:22.218Z,34.20
2022-09-06T17:23:49.928Z,34.10
2022-09-06T17:26:21.154Z,34.10
2022-09-06T17:28:50.840Z,34.10
2022-09-06T17:31:23.630Z,34.00
2022-09-06T17:33:53.394Z,33.90
2022-09-06T17:36:25.700Z,33.70
2022-09-06T17:38:54.087Z,33.60
2022-09-06T17:41:24.611Z,33.40
2022-09-06T17:43:54.551Z,33.10
2022-09-06T17:46:27.833Z,32.80
2022-09-06T17:48:56.205Z,32.60
2022-09-06T17:51:24.279Z,32.30
2022-09-06T17:53:52.048Z,32.10
2022-09-06T17:56:19.438Z,31.90
2022-09-06T17:58:56.158Z,31.70
2022-09-06T18:01:25.100Z,31.50
2022-09-06T18:03:52.612Z,31.40
2022-09-06T18:06:22.763Z,31.20
2022-09-06T18:08:52.110Z,30.90
2022-09-06T18:11:22.344Z,30.70
2022-09-06T18:13:56.333Z,30.60
2022-09-06T18:16:23.183Z,30.50
2022-09-06T18:18:52.665Z,30.30
2022-09-06T18:21:20.063Z,30.20
2022-09-06T18:23:47.743Z,30.10
2022-09-06T18:26:14.917Z,30.10
2022-09-06T18:28:41.592Z,30.00
2022-09-06T18:31:11.107Z,29.80
2022-09-06T18:33:38.772Z,29.80
2022-09-06T18:36:07.147Z,29.60
2022-09-06T18:38:39.626Z,29.50
2022-09-06T18:41:08.712Z,29.40
2022-09-06T18:43:39.713Z,29.20
2022-09-06T18:46:12.707Z,29.10
2022-09-06T18:48:40.608Z,28.90
2022-09-06T18:51:12.872Z,28.80
2022-09-06T18:53:44.775Z,28.80
2022-09-06T18:56:13.290Z,28.70
2022-09-06T18:58:40.415Z,28.60
2022-09-06T19:01:10.420Z,28.50
2022-09-06T19:03:38.446Z,28.30
2022-09-06T19:06:11.671Z,28.10
2022-09-06T19:08:39.133Z,28.00
2022-09-06T19:11:09.115Z,27.90
2022-09-06T19:13:37.920Z,27.80
2022-09-06T19:16:06.206Z,27.80
2022-09-06T19:18:34.035Z,27.70
2022-09-06T19:21:09.802Z,27.60
2022-09-06T19:23:40.116Z,27.60
2022-09-06T19:26:13.515Z,27.50
2022-09-06T19:28:40.726Z,27.40
2022-09-06T19:31:15.964Z,27.30
2022-09-06T19:33:44.529Z,27.30
2022-09-06T19:36:12.581Z,27.20
2022-09-06T19:39:02.618Z,27.10
2022-09-06T19:41:28.955Z,27.00
2022-09-06T19:43:57.340Z,26.90
2022-09-06T19:46:24.852Z,26.80
2022-09-06T19:48:53.645Z,26.70
2022-09-06T19:51:21.155Z,26.70
2022-09-06T19:53:52.174Z,26.60
2022-09-06T19:56:22.468Z,26.50
2022-09-06T19:58:57.399Z,26.40
2022-09-06T20:01:26.336Z,26.30
2022-09-06T20:03:53.253Z,26.20
2022-09-06T20:06:22.387Z,26.10
2022-09-06T20:08:51.652Z,26.00
2022-09-06T20:11:19.797Z,25.90
2022-09-06T20:13:47.125Z,25.80
2022-09-06T20:16:14.711Z,25.70
2022-09-06T20:18:42.034Z,25.60
2022-09-06T20:21:08.952Z,25.50
2022-09-06T20:23:36.678Z,25.50
2022-09-06T20:26:05.924Z,25.40
2022-09-06T20:28:33.761Z,25.30
2022-09-06T20:31:06.392Z,25.30
2022-09-06T20:33:33.821Z,25.20
2022-09-06T20:36:03.324Z,25.10
2022-09-06T20:38:32.383Z,25.00
2022-09-06T20:41:07.787Z,24.90
2022-09-06T20:43:38.626Z,24.80
2022-09-06T20:46:14.650Z,24.80
2022-09-06T20:48:44.985Z,24.70
2022-09-06T20:51:18.789Z,24.70
2022-09-06T20:53:51.642Z,24.60
2022-09-06T20:56:20.562Z,24.50
2022-09-06T20:58:48.792Z,24.40
2022-09-06T21:01:22.199Z,24.40
2022-09-06T21:03:51.837Z,24.30
2022-09-06T21:06:20.247Z,24.30
2022-09-06T21:08:47.718Z,24.20
2022-09-06T21:11:14.673Z,24.20
2022-09-06T21:13:41.448Z,24.10
2022-09-06T21:16:08.947Z,24.00
2022-09-06T21:18:36.865Z,24.00
2022-09-06T21:21:08.095Z,23.90
2022-09-06T21:23:36.791Z,23.90
2022-09-06T21:26:11.675Z,23.80
2022-09-06T21:28:39.946Z,23.70
2022-09-06T21:31:12.213Z,23.70
2022-09-06T21:33:44.463Z,23.70
2022-09-06T21:36:16.740Z,23.60
2022-09-06T21:38:45.811Z,23.60
2022-09-06T21:41:14.381Z,23.50
2022-09-06T21:43:41.663Z,23.50
2022-09-06T21:46:12.178Z,23.40
2022-09-06T21:48:40.839Z,23.40
2022-09-06T21:51:08.196Z,23.30
2022-09-06T21:53:37.100Z,23.20
2022-09-06T21:56:05.041Z,23.20
2022-09-06T21:58:32.633Z,23.10
2022-09-06T22:01:01.161Z,23.00
2022-09-06T22:03:29.848Z,23.00
2022-09-06T22:05:57.129Z,23.00
2022-09-06T22:08:24.767Z,23.00
2022-09-06T22:10:51.948Z,22.90
2022-09-06T22:13:19.983Z,22.80
2022-09-06T22:15:46.870Z,22.80
2022-09-06T22:18:13.663Z,22.80
2022-09-06T22:20:40.482Z,22.70
2022-09-06T22:23:08.382Z,22.70
2022-09-06T22:25:35.402Z,22.70
2022-09-06T22:28:03.212Z,22.60
2022-09-06T22:30:30.782Z,22.60
2022-09-06T22:32:57.734Z,22.60
2022-09-06T22:35:24.433Z,22.50
2022-09-06T22:37:51.116Z,22.50
2022-09-06T22:40:17.815Z,22.40
2022-09-06T22:42:44.803Z,22.40
2022-09-06T22:45:11.556Z,22.40
2022-09-06T22:47:38.267Z,22.40
2022-09-06T22:50:06.731Z,22.40
2022-09-06T22:52:33.912Z,22.40
2022-09-06T22:55:00.567Z,22.30
2022-09-06T22:57:27.314Z,22.30
2022-09-06T22:59:54.125Z,22.20
2022-09-06T23:02:20.810Z,22.20
2022-09-06T23:04:47.593Z,22.20
2022-09-06T23:07:14.312Z,22.10
2022-09-06T23:09:41.521Z,22.10
2022-09-06T23:12:08.257Z,22.00
2022-09-06T23:14:35.004Z,22.00
2022-09-06T23:17:03.446Z,22.00
2022-09-06T23:19:30.125Z,22.00
2022-09-06T23:21:56.809Z,21.90
2022-09-06T23:24:23.645Z,21.90
2022-09-06T23:26:50.607Z,21.90
2022-09-06T23:29:17.298Z,21.80
2022-09-06T23:31:44.022Z,21.80
2022-09-06T23:34:11.043Z,21.70
2022-09-06T23:36:37.753Z,21.70
2022-09-06T23:39:07.038Z,21.70
2022-09-06T23:41:34.267Z,21.60
2022-09-06T23:44:01.766Z,21.60
2022-09-06T23:46:29.345Z,21.60
2022-09-06T23:48:56.169Z,21.50
2022-09-06T23:51:22.964Z,21.50
2022-09-06T23:53:49.689Z,21.40
2022-09-06T23:56:16.370Z,21.40
2022-09-06T23:58:43.209Z,21.40
